Accueil
METAR-TAF:

METAR-TAF

Aéroports :

Aéroport de Saint-Pierre Pierrefonds

Saint-Pierre, Réunion

latitude: 21-20S, longitude: 055-29E, altitude: 52 m

Observation

Le bulletin a été fait il y a 31 minutes, à 11:00 UTC
Vent 3 kt de sud/sud-ouest, variant entre sud-est et ouest
Température 30°C
Humidité 75%
Pression 1008 hPa
Visibilité 10 km ou plus
pas de nuages en-dessous de 1500 mètres et pas de cumulonimbus.

METAR: FMEP 211100Z AUTO 21003KT 140V260 CAVOK 30/25 Q1008 NOSIG

Heure: 15:31 (11:31 UTC)

Prévision

Le bulletin a été fait il y a 3 heures et 31 minutes, à 08:00 UTC
Prévision valable du 21 à 09 UTC au 21 à 18 UTC
Vent 7 kt de ouest
Visibilité 10 km ou plus
Quelques nuages à une hauteur de 5000 ft
Evoluant progressivement
du 21 à 13 UTC au 21 à 15 UTC
Vent 16 kt de est

TAF: FMEP 210800Z 2109/2118 26007KT 9999 FEW050 BECMG 2113/2115 10016KT

Observations et prévisions météorologiques de plus de 4000 aéroports (messages METAR et TAF).

Les stations disponibles sont représentées par des disques jaunes et rouges sur la carte.

Passer la souris dessus pour voir le nom de la station.

Cliquer dessus pour voir les observations et prévisions météorologiques.

Pour changer de carte: cliquez sur les boutons verts avec une croix noire pour zoomer, sur le bouton vert avec un tiret pour effectuer un zoom arrière, ou sur les flèches vertes pour les cartes adjacentes.


METAR-TAF: